KTYS/TYS METAR and TAF weather

Enter ICAO airport designator
Station Type Date Time Source
KTYS METAR 2024/06/14 01:53 UTC NOAA

KTYS 140153Z 00000KT 10SM FEW065 28/18 A2997 RMK AO2 SLP134 T02780178


Station Type Date Time Source
KTYS Decoded METAR 2024/06/14 01:53 UTC NOAA

MCGHEE TYSON AIRPORT, TN, United States (KTYS) 35-49N 083-59W 302M
Jun 13, 2024 - 09:53 PM EDT / 2024.06.14 0153 UTC
Wind: Calm:0
Visibility: 10 mile(s):0
Sky conditions: mostly clear
Temperature: 82.0 F (27.8 C)
Dew Point: 64.0 F (17.8 C)
Relative Humidity: 54%
Pressure (altimeter): 29.97 in. Hg (1014 hPa)
ob: KTYS 140153Z 00000KT 10SM FEW065 28/18 A2997 RMK AO2 SLP134 T02780178
cycle: 2

Station Type Date Time Source
KTYS TAF 2024/06/13 18:33 UTC NOAA